sensor_id;sensor_type;location;lat;lon;timestamp;pressure;altitude;pressure_sealevel;temperature;humidity
25080;BME280;13071;48.868;9.996;2022-09-09T00:01:31;96216.72;;;13.76;86.70
25080;BME280;13071;48.868;9.996;2022-09-09T00:04:08;96210.88;;;13.74;87.04
25080;BME280;13071;48.868;9.996;2022-09-09T00:06:43;96206.16;;;13.71;86.99
25080;BME280;13071;48.868;9.996;2022-09-09T00:09:13;96211.72;;;13.78;86.83
25080;BME280;13071;48.868;9.996;2022-09-09T00:11:47;96203.25;;;13.83;86.93
25080;BME280;13071;48.868;9.996;2022-09-09T00:14:20;96197.88;;;13.87;86.70
25080;BME280;13071;48.868;9.996;2022-09-09T00:16:53;96204.78;;;13.81;86.88
25080;BME280;13071;48.868;9.996;2022-09-09T00:19:24;96201.28;;;13.80;87.13
25080;BME280;13071;48.868;9.996;2022-09-09T00:22:06;96197.38;;;13.81;87.35
25080;BME280;13071;48.868;9.996;2022-09-09T00:24:42;96195.44;;;13.82;87.26
25080;BME280;13071;48.868;9.996;2022-09-09T00:27:17;96198.28;;;13.66;87.08
25080;BME280;13071;48.868;9.996;2022-09-09T00:29:52;96191.97;;;13.62;87.77
25080;BME280;13071;48.868;9.996;2022-09-09T00:32:20;96192.06;;;13.66;88.10
25080;BME280;13071;48.868;9.996;2022-09-09T00:34:49;96195.97;;;13.68;87.98
25080;BME280;13071;48.868;9.996;2022-09-09T00:37:18;96191.78;;;13.71;87.97
25080;BME280;13071;48.868;9.996;2022-09-09T00:39:46;96194.50;;;13.52;88.23
25080;BME280;13071;48.868;9.996;2022-09-09T00:42:17;96195.50;;;13.44;88.91
25080;BME280;13071;48.868;9.996;2022-09-09T00:44:52;96201.78;;;13.48;89.31
25080;BME280;13071;48.868;9.996;2022-09-09T00:47:39;96195.56;;;13.47;88.84
25080;BME280;13071;48.868;9.996;2022-09-09T00:50:17;96202.81;;;13.39;89.08
25080;BME280;13071;48.868;9.996;2022-09-09T00:52:59;96205.88;;;13.38;89.50
25080;BME280;13071;48.868;9.996;2022-09-09T00:55:35;96207.09;;;13.40;90.10
25080;BME280;13071;48.868;9.996;2022-09-09T00:58:08;96198.50;;;13.38;90.54
25080;BME280;13071;48.868;9.996;2022-09-09T01:00:40;96207.09;;;13.21;91.16
25080;BME280;13071;48.868;9.996;2022-09-09T01:03:19;96208.50;;;13.15;91.67
25080;BME280;13071;48.868;9.996;2022-09-09T01:05:55;96205.00;;;13.15;92.00
25080;BME280;13071;48.868;9.996;2022-09-09T01:08:37;96198.22;;;13.24;91.80
25080;BME280;13071;48.868;9.996;2022-09-09T01:11:10;96208.75;;;13.26;92.03
25080;BME280;13071;48.868;9.996;2022-09-09T01:13:45;96203.03;;;13.31;92.36
25080;BME280;13071;48.868;9.996;2022-09-09T01:16:13;96204.00;;;13.42;91.62
25080;BME280;13071;48.868;9.996;2022-09-09T01:18:44;96201.78;;;13.48;90.73
25080;BME280;13071;48.868;9.996;2022-09-09T01:21:18;96200.13;;;13.43;90.57
25080;BME280;13071;48.868;9.996;2022-09-09T01:24:03;96200.44;;;13.38;90.44
25080;BME280;13071;48.868;9.996;2022-09-09T01:26:34;96201.66;;;13.40;90.72
25080;BME280;13071;48.868;9.996;2022-09-09T01:29:02;96207.50;;;13.43;91.13
25080;BME280;13071;48.868;9.996;2022-09-09T01:31:31;96197.56;;;13.50;90.80
25080;BME280;13071;48.868;9.996;2022-09-09T01:33:59;96194.13;;;13.53;91.25
25080;BME280;13071;48.868;9.996;2022-09-09T01:36:31;96194.69;;;13.62;91.37
25080;BME280;13071;48.868;9.996;2022-09-09T01:38:59;96200.63;;;13.68;91.32
25080;BME280;13071;48.868;9.996;2022-09-09T01:41:26;96194.09;;;13.72;91.13
25080;BME280;13071;48.868;9.996;2022-09-09T01:43:55;96189.66;;;13.83;90.08
25080;BME280;13071;48.868;9.996;2022-09-09T01:46:23;96193.16;;;13.84;88.92
25080;BME280;13071;48.868;9.996;2022-09-09T01:48:50;96186.28;;;13.90;87.60
25080;BME280;13071;48.868;9.996;2022-09-09T01:51:18;96190.09;;;13.86;87.54
25080;BME280;13071;48.868;9.996;2022-09-09T01:53:45;96190.00;;;13.82;88.01
25080;BME280;13071;48.868;9.996;2022-09-09T01:56:21;96189.53;;;13.57;89.50
25080;BME280;13071;48.868;9.996;2022-09-09T01:59:00;96185.41;;;13.63;89.33
25080;BME280;13071;48.868;9.996;2022-09-09T02:01:39;96197.56;;;13.69;89.29
25080;BME280;13071;48.868;9.996;2022-09-09T02:04:18;96189.41;;;13.69;89.57
25080;BME280;13071;48.868;9.996;2022-09-09T02:06:52;96188.75;;;13.76;89.51
25080;BME280;13071;48.868;9.996;2022-09-09T02:09:23;96179.53;;;13.61;89.36
25080;BME280;13071;48.868;9.996;2022-09-09T02:11:55;96185.41;;;13.63;89.53
25080;BME280;13071;48.868;9.996;2022-09-09T02:14:28;96192.06;;;13.66;90.54
25080;BME280;13071;48.868;9.996;2022-09-09T02:16:59;96198.69;;;13.68;90.09
25080;BME280;13071;48.868;9.996;2022-09-09T02:19:31;96191.91;;;13.59;89.84
25080;BME280;13071;48.868;9.996;2022-09-09T02:21:59;96191.19;;;13.62;90.00
25080;BME280;13071;48.868;9.996;2022-09-09T02:24:28;96188.41;;;13.58;90.36
25080;BME280;13071;48.868;9.996;2022-09-09T02:26:57;96192.25;;;13.57;90.41
25080;BME280;13071;48.868;9.996;2022-09-09T02:29:30;96193.06;;;13.58;90.62
25080;BME280;13071;48.868;9.996;2022-09-09T02:32:01;96193.00;;;13.54;91.07
25080;BME280;13071;48.868;9.996;2022-09-09T02:34:31;96192.94;;;13.51;90.75
25080;BME280;13071;48.868;9.996;2022-09-09T02:37:03;96185.91;;;13.50;90.83
25080;BME280;13071;48.868;9.996;2022-09-09T02:39:30;96180.75;;;13.45;91.06
25080;BME280;13071;48.868;9.996;2022-09-09T02:41:57;96185.75;;;13.43;91.06
25080;BME280;13071;48.868;9.996;2022-09-09T02:44:23;96189.16;;;13.36;91.16
25080;BME280;13071;48.868;9.996;2022-09-09T02:47:03;96182.91;;;13.35;91.46
25080;BME280;13071;48.868;9.996;2022-09-09T02:49:40;96178.75;;;13.22;91.36
25080;BME280;13071;48.868;9.996;2022-09-09T02:52:14;96176.91;;;13.26;90.80
25080;BME280;13071;48.868;9.996;2022-09-09T02:54:42;96180.47;;;13.11;91.79
25080;BME280;13071;48.868;9.996;2022-09-09T02:57:11;96181.75;;;13.17;91.50
25080;BME280;13071;48.868;9.996;2022-09-09T02:59:38;96177.84;;;13.15;91.49
25080;BME280;13071;48.868;9.996;2022-09-09T03:02:06;96179.34;;;13.12;91.63
25080;BME280;13071;48.868;9.996;2022-09-09T03:04:35;96178.28;;;13.17;91.43
25080;BME280;13071;48.868;9.996;2022-09-09T03:07:02;96185.69;;;13.20;91.95
25080;BME280;13071;48.868;9.996;2022-09-09T03:09:28;96176.25;;;13.14;91.96
25080;BME280;13071;48.868;9.996;2022-09-09T03:11:55;96187.97;;;13.18;91.48
25080;BME280;13071;48.868;9.996;2022-09-09T03:14:22;96190.63;;;13.14;90.41
25080;BME280;13071;48.868;9.996;2022-09-09T03:16:50;96181.53;;;13.07;90.88
25080;BME280;13071;48.868;9.996;2022-09-09T03:19:18;96186.06;;;13.03;91.09
25080;BME280;13071;48.868;9.996;2022-09-09T03:21:45;96179.72;;;12.95;91.60
25080;BME280;13071;48.868;9.996;2022-09-09T03:24:12;96183.72;;;13.01;91.82
25080;BME280;13071;48.868;9.996;2022-09-09T03:26:39;96184.59;;;13.05;92.03
25080;BME280;13071;48.868;9.996;2022-09-09T03:29:06;96194.72;;;13.08;91.57
25080;BME280;13071;48.868;9.996;2022-09-09T03:31:33;96198.09;;;13.02;91.61
25080;BME280;13071;48.868;9.996;2022-09-09T03:34:01;96188.78;;;13.03;91.24
25080;BME280;13071;48.868;9.996;2022-09-09T03:36:29;96188.03;;;13.02;90.87
25080;BME280;13071;48.868;9.996;2022-09-09T03:38:56;96187.41;;;12.93;90.46
25080;BME280;13071;48.868;9.996;2022-09-09T03:41:24;96186.41;;;12.82;90.31
25080;BME280;13071;48.868;9.996;2022-09-09T03:43:51;96172.09;;;12.66;91.67
25080;BME280;13071;48.868;9.996;2022-09-09T03:46:18;96184.44;;;12.63;91.83
25080;BME280;13071;48.868;9.996;2022-09-09T03:48:45;96196.59;;;12.69;91.88
25080;BME280;13071;48.868;9.996;2022-09-09T03:51:12;96192.28;;;12.68;91.58
25080;BME280;13071;48.868;9.996;2022-09-09T03:53:40;96199.03;;;12.74;91.02
25080;BME280;13071;48.868;9.996;2022-09-09T03:56:07;96197.47;;;12.73;90.69
25080;BME280;13071;48.868;9.996;2022-09-09T03:58:34;96196.59;;;12.69;91.00
25080;BME280;13071;48.868;9.996;2022-09-09T04:01:03;96210.63;;;12.71;91.53
25080;BME280;13071;48.868;9.996;2022-09-09T04:03:31;96204.13;;;12.76;92.27
25080;BME280;13071;48.868;9.996;2022-09-09T04:06:00;96209.09;;;12.74;92.39
25080;BME280;13071;48.868;9.996;2022-09-09T04:08:28;96209.03;;;12.70;92.21
25080;BME280;13071;48.868;9.996;2022-09-09T04:10:57;96194.94;;;12.65;93.39
25080;BME280;13071;48.868;9.996;2022-09-09T04:13:26;96210.63;;;12.71;92.86
25080;BME280;13071;48.868;9.996;2022-09-09T04:15:53;96217.97;;;12.71;92.61
25080;BME280;13071;48.868;9.996;2022-09-09T04:18:20;96212.63;;;12.74;92.91
25080;BME280;13071;48.868;9.996;2022-09-09T04:20:47;96214.38;;;12.82;93.16
25080;BME280;13071;48.868;9.996;2022-09-09T04:23:14;96214.69;;;12.96;92.08
25080;BME280;13071;48.868;9.996;2022-09-09T04:25:43;96217.00;;;13.14;91.13
25080;BME280;13071;48.868;9.996;2022-09-09T04:28:13;96217.03;;;13.33;89.37
25080;BME280;13071;48.868;9.996;2022-09-09T04:30:40;96221.19;;;13.46;88.18
25080;BME280;13071;48.868;9.996;2022-09-09T04:33:07;96215.53;;;13.55;87.83
25080;BME280;13071;48.868;9.996;2022-09-09T04:35:35;96219.91;;;13.59;88.56
25080;BME280;13071;48.868;9.996;2022-09-09T04:38:01;96209.88;;;13.63;89.51
25080;BME280;13071;48.868;9.996;2022-09-09T04:40:28;96216.16;;;13.67;89.83
25080;BME280;13071;48.868;9.996;2022-09-09T04:42:57;96210.81;;;13.71;90.56
25080;BME280;13071;48.868;9.996;2022-09-09T04:45:25;96205.66;;;13.66;90.66
25080;BME280;13071;48.868;9.996;2022-09-09T04:47:52;96213.44;;;13.67;91.14
25080;BME280;13071;48.868;9.996;2022-09-09T04:50:19;96212.25;;;13.65;91.22
25080;BME280;13071;48.868;9.996;2022-09-09T04:52:45;96212.09;;;13.58;92.00
25080;BME280;13071;48.868;9.996;2022-09-09T04:55:12;96208.38;;;13.66;91.71
25080;BME280;13071;48.868;9.996;2022-09-09T04:57:39;96214.59;;;13.66;91.77
25080;BME280;13071;48.868;9.996;2022-09-09T05:00:06;96207.66;;;13.69;92.07
25080;BME280;13071;48.868;9.996;2022-09-09T05:02:37;96221.25;;;13.69;92.43
25080;BME280;13071;48.868;9.996;2022-09-09T05:05:04;96222.88;;;13.73;91.54
25080;BME280;13071;48.868;9.996;2022-09-09T05:07:31;96223.44;;;13.82;91.90
25080;BME280;13071;48.868;9.996;2022-09-09T05:09:57;96224.28;;;13.87;92.11
25080;BME280;13071;48.868;9.996;2022-09-09T05:12:24;96224.38;;;13.90;91.44
25080;BME280;13071;48.868;9.996;2022-09-09T05:14:52;96224.00;;;13.92;91.56
25080;BME280;13071;48.868;9.996;2022-09-09T05:17:18;96227.59;;;13.96;91.72
25080;BME280;13071;48.868;9.996;2022-09-09T05:19:46;96215.19;;;13.98;91.52
25080;BME280;13071;48.868;9.996;2022-09-09T05:22:13;96220.56;;;13.95;91.81
25080;BME280;13071;48.868;9.996;2022-09-09T05:24:44;96224.50;;;13.97;91.41
25080;BME280;13071;48.868;9.996;2022-09-09T05:27:10;96226.13;;;14.02;91.21
25080;BME280;13071;48.868;9.996;2022-09-09T05:29:37;96222.31;;;14.06;91.47
25080;BME280;13071;48.868;9.996;2022-09-09T05:32:04;96218.75;;;14.02;89.67
25080;BME280;13071;48.868;9.996;2022-09-09T05:34:31;96226.31;;;14.12;89.64
25080;BME280;13071;48.868;9.996;2022-09-09T05:36:58;96221.38;;;14.18;88.81
25080;BME280;13071;48.868;9.996;2022-09-09T05:39:25;96228.75;;;14.17;89.04
25080;BME280;13071;48.868;9.996;2022-09-09T05:41:51;96235.13;;;14.25;88.99
25080;BME280;13071;48.868;9.996;2022-09-09T05:44:18;96237.19;;;14.12;89.19
25080;BME280;13071;48.868;9.996;2022-09-09T05:46:45;96230.50;;;14.29;88.58
25080;BME280;13071;48.868;9.996;2022-09-09T05:49:12;96231.28;;;14.30;89.29
25080;BME280;13071;48.868;9.996;2022-09-09T05:51:41;96230.13;;;14.50;89.15
25080;BME280;13071;48.868;9.996;2022-09-09T05:54:10;96223.84;;;14.72;88.71
25080;BME280;13071;48.868;9.996;2022-09-09T05:56:40;96228.03;;;14.92;88.57
25080;BME280;13071;48.868;9.996;2022-09-09T05:59:07;96220.97;;;15.14;87.89
25080;BME280;13071;48.868;9.996;2022-09-09T06:01:34;96224.75;;;15.36;87.68
25080;BME280;13071;48.868;9.996;2022-09-09T06:04:02;96224.91;;;15.50;86.72
25080;BME280;13071;48.868;9.996;2022-09-09T06:06:32;96223.63;;;15.70;86.45
25080;BME280;13071;48.868;9.996;2022-09-09T06:09:03;96222.44;;;16.05;85.41
25080;BME280;13071;48.868;9.996;2022-09-09T06:11:35;96230.34;;;15.76;84.30
25080;BME280;13071;48.868;9.996;2022-09-09T06:14:02;96231.69;;;15.60;83.55
25080;BME280;13071;48.868;9.996;2022-09-09T06:16:30;96231.41;;;15.68;82.81
25080;BME280;13071;48.868;9.996;2022-09-09T06:18:58;96228.22;;;15.96;82.40
25080;BME280;13071;48.868;9.996;2022-09-09T06:21:26;96226.34;;;15.70;82.47
25080;BME280;13071;48.868;9.996;2022-09-09T06:23:53;96225.41;;;15.89;82.70
25080;BME280;13071;48.868;9.996;2022-09-09T06:26:21;96218.69;;;16.16;81.67
25080;BME280;13071;48.868;9.996;2022-09-09T06:28:52;96221.44;;;16.23;80.03
25080;BME280;13071;48.868;9.996;2022-09-09T06:31:20;96221.38;;;16.57;79.02
25080;BME280;13071;48.868;9.996;2022-09-09T06:33:49;96230.97;;;16.84;79.90
25080;BME280;13071;48.868;9.996;2022-09-09T06:36:18;96240.47;;;17.01;81.59
25080;BME280;13071;48.868;9.996;2022-09-09T06:38:44;96240.84;;;16.52;84.28
25080;BME280;13071;48.868;9.996;2022-09-09T06:41:13;96237.44;;;16.62;82.31
25080;BME280;13071;48.868;9.996;2022-09-09T06:43:40;96245.44;;;16.88;81.03
25080;BME280;13071;48.868;9.996;2022-09-09T06:46:11;96239.94;;;16.81;79.20
25080;BME280;13071;48.868;9.996;2022-09-09T06:48:39;96234.81;;;16.72;79.27
25080;BME280;13071;48.868;9.996;2022-09-09T06:51:09;96230.91;;;16.73;79.39
25080;BME280;13071;48.868;9.996;2022-09-09T06:53:37;96234.72;;;16.62;81.26
25080;BME280;13071;48.868;9.996;2022-09-09T06:56:18;96244.31;;;16.49;82.82
25080;BME280;13071;48.868;9.996;2022-09-09T06:58:46;96237.09;;;16.67;83.63
25080;BME280;13071;48.868;9.996;2022-09-09T07:01:16;96246.56;;;16.80;83.50
25080;BME280;13071;48.868;9.996;2022-09-09T07:03:46;96239.63;;;16.90;83.10
25080;BME280;13071;48.868;9.996;2022-09-09T07:06:14;96240.44;;;16.97;83.22
25080;BME280;13071;48.868;9.996;2022-09-09T07:08:42;96244.81;;;17.09;82.44
25080;BME280;13071;48.868;9.996;2022-09-09T07:11:09;96241.81;;;17.28;82.41
25080;BME280;13071;48.868;9.996;2022-09-09T07:13:36;96243.50;;;17.54;81.55
25080;BME280;13071;48.868;9.996;2022-09-09T07:16:04;96239.19;;;17.53;80.32
25080;BME280;13071;48.868;9.996;2022-09-09T07:18:32;96236.53;;;17.60;80.14
25080;BME280;13071;48.868;9.996;2022-09-09T07:21:00;96233.81;;;17.67;79.15
25080;BME280;13071;48.868;9.996;2022-09-09T07:23:27;96252.88;;;17.56;78.78
25080;BME280;13071;48.868;9.996;2022-09-09T07:25:54;96255.25;;;17.58;79.15
25080;BME280;13071;48.868;9.996;2022-09-09T07:28:21;96245.94;;;17.66;80.16
25080;BME280;13071;48.868;9.996;2022-09-09T07:30:53;96253.75;;;17.60;80.12
25080;BME280;13071;48.868;9.996;2022-09-09T07:33:19;96253.38;;;17.69;79.74
25080;BME280;13071;48.868;9.996;2022-09-09T07:35:47;96250.28;;;17.78;79.39
25080;BME280;13071;48.868;9.996;2022-09-09T07:38:14;96253.03;;;17.78;80.02
25080;BME280;13071;48.868;9.996;2022-09-09T07:40:41;96251.91;;;17.86;79.25
25080;BME280;13071;48.868;9.996;2022-09-09T07:43:08;96247.97;;;17.87;79.44
25080;BME280;13071;48.868;9.996;2022-09-09T07:45:35;96265.97;;;17.84;79.58
25080;BME280;13071;48.868;9.996;2022-09-09T07:48:02;96253.84;;;17.96;79.29
25080;BME280;13071;48.868;9.996;2022-09-09T07:50:29;96253.16;;;18.20;77.79
25080;BME280;13071;48.868;9.996;2022-09-09T07:52:57;96248.09;;;18.29;77.11
25080;BME280;13071;48.868;9.996;2022-09-09T07:55:24;96251.63;;;18.44;75.76
25080;BME280;13071;48.868;9.996;2022-09-09T07:57:52;96252.09;;;18.64;74.60
25080;BME280;13071;48.868;9.996;2022-09-09T08:00:19;96250.91;;;18.89;73.43
25080;BME280;13071;48.868;9.996;2022-09-09T08:02:47;96261.88;;;18.82;74.69
25080;BME280;13071;48.868;9.996;2022-09-09T08:05:14;96262.28;;;18.84;74.04
25080;BME280;13071;48.868;9.996;2022-09-09T08:07:42;96254.44;;;18.83;73.84
25080;BME280;13071;48.868;9.996;2022-09-09T08:10:10;96275.19;;;19.02;73.91
25080;BME280;13071;48.868;9.996;2022-09-09T08:12:39;96266.97;;;18.98;73.44
25080;BME280;13071;48.868;9.996;2022-09-09T08:15:06;96271.28;;;18.92;73.67
25080;BME280;13071;48.868;9.996;2022-09-09T08:17:33;96269.72;;;18.98;73.68
25080;BME280;13071;48.868;9.996;2022-09-09T08:20:00;96268.91;;;19.05;73.72
25080;BME280;13071;48.868;9.996;2022-09-09T08:22:30;96263.78;;;19.24;73.69
25080;BME280;13071;48.868;9.996;2022-09-09T08:24:56;96269.25;;;19.49;72.00
25080;BME280;13071;48.868;9.996;2022-09-09T08:27:25;96265.31;;;19.39;71.28
25080;BME280;13071;48.868;9.996;2022-09-09T08:29:51;96271.59;;;19.44;71.52
25080;BME280;13071;48.868;9.996;2022-09-09T08:32:18;96268.88;;;19.36;70.71
25080;BME280;13071;48.868;9.996;2022-09-09T08:34:45;96266.53;;;19.31;71.89
25080;BME280;13071;48.868;9.996;2022-09-09T08:37:12;96263.78;;;19.28;71.73
25080;BME280;13071;48.868;9.996;2022-09-09T08:39:39;96270.06;;;19.25;71.42
25080;BME280;13071;48.868;9.996;2022-09-09T08:42:17;96271.25;;;19.27;72.45
25080;BME280;13071;48.868;9.996;2022-09-09T08:45:05;96275.91;;;19.34;72.64
25080;BME280;13071;48.868;9.996;2022-09-09T08:47:44;96279.81;;;19.40;71.75
25080;BME280;13071;48.868;9.996;2022-09-09T08:50:20;96283.75;;;19.35;71.18
25080;BME280;13071;48.868;9.996;2022-09-09T08:52:53;96288.91;;;19.09;70.91
25080;BME280;13071;48.868;9.996;2022-09-09T08:55:26;96294.38;;;19.09;72.15
25080;BME280;13071;48.868;9.996;2022-09-09T08:57:57;96283.38;;;19.19;73.25
25080;BME280;13071;48.868;9.996;2022-09-09T09:00:33;96292.38;;;19.34;73.75
25080;BME280;13071;48.868;9.996;2022-09-09T09:03:10;96284.97;;;19.49;73.14
25080;BME280;13071;48.868;9.996;2022-09-09T09:05:46;96287.25;;;19.61;72.95
25080;BME280;13071;48.868;9.996;2022-09-09T09:08:20;96294.31;;;19.65;72.28
25080;BME280;13071;48.868;9.996;2022-09-09T09:10:53;96282.09;;;19.80;70.60
25080;BME280;13071;48.868;9.996;2022-09-09T09:13:28;96282.84;;;19.95;72.05
25080;BME280;13071;48.868;9.996;2022-09-09T09:16:00;96282.03;;;19.98;70.77
25080;BME280;13071;48.868;9.996;2022-09-09T09:18:29;96271.00;;;20.05;69.25
25080;BME280;13071;48.868;9.996;2022-09-09T09:21:02;96271.78;;;20.09;70.27
25080;BME280;13071;48.868;9.996;2022-09-09T09:23:35;96266.34;;;20.02;70.10
25080;BME280;13071;48.868;9.996;2022-09-09T09:26:07;96267.00;;;20.27;70.09
25080;BME280;13071;48.868;9.996;2022-09-09T09:28:36;96274.44;;;20.34;70.18
25080;BME280;13071;48.868;9.996;2022-09-09T09:31:06;96263.69;;;20.54;68.96
25080;BME280;13071;48.868;9.996;2022-09-09T09:33:36;96264.84;;;20.60;69.01
25080;BME280;13071;48.868;9.996;2022-09-09T09:36:06;96265.31;;;20.48;67.84
25080;BME280;13071;48.868;9.996;2022-09-09T09:38:35;96266.53;;;20.40;68.32
25080;BME280;13071;48.868;9.996;2022-09-09T09:41:02;96269.69;;;20.38;69.65
25080;BME280;13071;48.868;9.996;2022-09-09T09:43:30;96268.53;;;20.28;70.30
25080;BME280;13071;48.868;9.996;2022-09-09T09:45:57;96267.69;;;20.46;70.67
25080;BME280;13071;48.868;9.996;2022-09-09T09:48:26;96269.09;;;20.72;69.99
25080;BME280;13071;48.868;9.996;2022-09-09T09:50:55;96270.19;;;20.81;66.93
25080;BME280;13071;48.868;9.996;2022-09-09T09:53:25;96275.50;;;21.06;67.19
25080;BME280;13071;48.868;9.996;2022-09-09T09:55:55;96278.16;;;21.13;65.48
25080;BME280;13071;48.868;9.996;2022-09-09T09:58:25;96270.38;;;21.04;65.64
25080;BME280;13071;48.868;9.996;2022-09-09T10:00:53;96268.81;;;21.03;65.77
25080;BME280;13071;48.868;9.996;2022-09-09T10:03:25;96268.72;;;21.21;64.96
25080;BME280;13071;48.868;9.996;2022-09-09T10:05:52;96268.19;;;21.33;63.61
25080;BME280;13071;48.868;9.996;2022-09-09T10:08:19;96266.25;;;21.30;65.20
25080;BME280;13071;48.868;9.996;2022-09-09T10:10:53;96270.53;;;21.35;66.41
25080;BME280;13071;48.868;9.996;2022-09-09T10:13:29;96263.03;;;21.39;66.59
25080;BME280;13071;48.868;9.996;2022-09-09T10:16:13;96261.25;;;21.18;66.17
25080;BME280;13071;48.868;9.996;2022-09-09T10:18:54;96265.66;;;21.05;67.03
25080;BME280;13071;48.868;9.996;2022-09-09T10:21:34;96262.34;;;21.28;66.67
25080;BME280;13071;48.868;9.996;2022-09-09T10:24:22;96262.75;;;21.26;65.21
25080;BME280;13071;48.868;9.996;2022-09-09T10:26:53;96257.56;;;21.32;65.21
25080;BME280;13071;48.868;9.996;2022-09-09T10:29:47;96257.75;;;21.55;65.66
25080;BME280;13071;48.868;9.996;2022-09-09T10:32:45;96247.06;;;21.61;64.54
25080;BME280;13071;48.868;9.996;2022-09-09T10:35:21;96247.81;;;21.65;65.25
25080;BME280;13071;48.868;9.996;2022-09-09T10:38:08;96243.06;;;21.65;65.61
25080;BME280;13071;48.868;9.996;2022-09-09T10:40:40;96250.06;;;21.73;66.67
25080;BME280;13071;48.868;9.996;2022-09-09T10:43:16;96241.06;;;21.69;64.33
25080;BME280;13071;48.868;9.996;2022-09-09T10:45:54;96238.53;;;21.82;66.11
25080;BME280;13071;48.868;9.996;2022-09-09T10:48:48;96237.56;;;21.99;64.44
25080;BME280;13071;48.868;9.996;2022-09-09T10:51:28;96236.09;;;21.87;64.47
25080;BME280;13071;48.868;9.996;2022-09-09T10:54:15;96234.72;;;21.72;65.00
25080;BME280;13071;48.868;9.996;2022-09-09T10:56:50;96234.44;;;21.63;64.39
25080;BME280;13071;48.868;9.996;2022-09-09T10:59:24;96232.75;;;21.73;66.00
25080;BME280;13071;48.868;9.996;2022-09-09T11:01:56;96246.16;;;21.71;63.60
25080;BME280;13071;48.868;9.996;2022-09-09T11:04:27;96240.16;;;21.42;67.30
25080;BME280;13071;48.868;9.996;2022-09-09T11:07:00;96236.78;;;21.65;67.25
25080;BME280;13071;48.868;9.996;2022-09-09T11:09:33;96234.59;;;21.83;63.75
25080;BME280;13071;48.868;9.996;2022-09-09T11:12:02;96245.84;;;21.62;64.09
25080;BME280;13071;48.868;9.996;2022-09-09T11:14:31;96231.91;;;21.76;64.13
25080;BME280;13071;48.868;9.996;2022-09-09T11:17:04;96236.94;;;21.84;64.28
25080;BME280;13071;48.868;9.996;2022-09-09T11:19:34;96234.78;;;22.03;65.00
25080;BME280;13071;48.868;9.996;2022-09-09T11:22:05;96224.78;;;22.12;62.21
25080;BME280;13071;48.868;9.996;2022-09-09T11:24:35;96223.81;;;21.99;61.59
25080;BME280;13071;48.868;9.996;2022-09-09T11:27:09;96221.94;;;21.89;60.67
25080;BME280;13071;48.868;9.996;2022-09-09T11:30:11;96225.50;;;21.56;61.50
25080;BME280;13071;48.868;9.996;2022-09-09T11:33:00;96231.44;;;21.50;62.21
25080;BME280;13071;48.868;9.996;2022-09-09T11:35:40;96234.38;;;21.33;62.79
25080;BME280;13071;48.868;9.996;2022-09-09T11:38:24;96222.41;;;21.46;62.49
25080;BME280;13071;48.868;9.996;2022-09-09T11:40:59;96228.59;;;21.58;61.83
25080;BME280;13071;48.868;9.996;2022-09-09T11:43:30;96223.09;;;21.58;61.52
25080;BME280;13071;48.868;9.996;2022-09-09T11:46:00;96206.91;;;21.63;61.33
25080;BME280;13071;48.868;9.996;2022-09-09T11:48:38;96209.38;;;21.54;61.76
25080;BME280;13071;48.868;9.996;2022-09-09T11:51:09;96203.19;;;21.77;61.03
25080;BME280;13071;48.868;9.996;2022-09-09T11:53:49;96190.94;;;22.12;58.21
25080;BME280;13071;48.868;9.996;2022-09-09T11:56:28;96188.66;;;22.07;57.89
25080;BME280;13071;48.868;9.996;2022-09-09T11:58:59;96204.53;;;21.95;56.35
25080;BME280;13071;48.868;9.996;2022-09-09T12:01:35;96198.72;;;21.86;56.09
25080;BME280;13071;48.868;9.996;2022-09-09T12:04:26;96199.84;;;21.92;56.29
25080;BME280;13071;48.868;9.996;2022-09-09T12:06:58;96192.41;;;21.89;55.40
25080;BME280;13071;48.868;9.996;2022-09-09T12:09:32;96191.06;;;22.05;58.84
25080;BME280;13071;48.868;9.996;2022-09-09T12:12:06;96183.97;;;22.30;56.26
25080;BME280;13071;48.868;9.996;2022-09-09T12:14:38;96179.09;;;22.42;56.71
25080;BME280;13071;48.868;9.996;2022-09-09T12:17:19;96179.53;;;22.63;56.00
25080;BME280;13071;48.868;9.996;2022-09-09T12:19:46;96181.38;;;22.73;55.30
25080;BME280;13071;48.868;9.996;2022-09-09T12:22:19;96173.94;;;22.94;57.33
25080;BME280;13071;48.868;9.996;2022-09-09T12:24:54;96176.28;;;23.15;54.78
25080;BME280;13071;48.868;9.996;2022-09-09T12:27:28;96173.00;;;23.23;53.79
25080;BME280;13071;48.868;9.996;2022-09-09T12:30:02;96174.22;;;23.19;54.48
25080;BME280;13071;48.868;9.996;2022-09-09T12:32:29;96171.97;;;23.14;53.42
25080;BME280;13071;48.868;9.996;2022-09-09T12:35:00;96184.31;;;23.29;52.83
25080;BME280;13071;48.868;9.996;2022-09-09T12:37:32;96194.56;;;23.09;52.60
25080;BME280;13071;48.868;9.996;2022-09-09T12:40:03;96236.78;;;21.27;56.73
25080;BME280;13071;48.868;9.996;2022-09-09T12:42:31;96246.84;;;19.65;61.97
25080;BME280;13071;48.868;9.996;2022-09-09T12:45:00;96246.19;;;19.04;65.09
25080;BME280;13071;48.868;9.996;2022-09-09T12:47:37;96250.13;;;18.78;66.95
25080;BME280;13071;48.868;9.996;2022-09-09T12:50:15;96246.88;;;18.12;69.19
25080;BME280;13071;48.868;9.996;2022-09-09T12:52:43;96237.44;;;17.89;70.54
25080;BME280;13071;48.868;9.996;2022-09-09T12:55:18;96244.63;;;18.75;68.55
25080;BME280;13071;48.868;9.996;2022-09-09T12:57:47;96240.25;;;18.28;68.85
25080;BME280;13071;48.868;9.996;2022-09-09T13:00:17;96243.75;;;18.18;68.72
25080;BME280;13071;48.868;9.996;2022-09-09T13:02:49;96238.38;;;18.57;69.94
25080;BME280;13071;48.868;9.996;2022-09-09T13:05:20;96254.34;;;18.19;67.25
25080;BME280;13071;48.868;9.996;2022-09-09T13:07:47;96253.59;;;18.50;68.79
25080;BME280;13071;48.868;9.996;2022-09-09T13:10:19;96253.25;;;18.87;67.24
25080;BME280;13071;48.868;9.996;2022-09-09T13:12:46;96247.72;;;19.33;66.84
25080;BME280;13071;48.868;9.996;2022-09-09T13:15:20;96251.63;;;19.43;66.49
25080;BME280;13071;48.868;9.996;2022-09-09T13:17:56;96256.72;;;19.52;66.38
25080;BME280;13071;48.868;9.996;2022-09-09T13:20:24;96245.81;;;18.98;70.06